Albin, Wyoming
Current Conditions -  °F | °C
As of 11:15 AM on Friday 19 Dec 2014 (Local Time) from K82V Reporting Station
Clear Clear  
Wind Chill: 31°   Ceiling: Unl
Heat Index: 41°   Visibility: 10mi
Dew Point: 18°   Wind: 23mph
Humidity: 39%   Direction: 290°WNW
Pressure: 30.03"   Gusts: 30mph
Location:  41.42°N, 104.1°W
Report Text: K82V 191815Z AUTO 29020G26KT 10SM CLR 05/M08 A3003 RMK AO2
Loading
Personal Weather Stations






























Interactive Weather Map New forecast layout! Learn more

10-Day Weather Forecast

Advertisements
Track Severe Weather on mobile